createdAt,value
2022-09-22T00:00:05.588Z,11.81
2022-09-22T00:02:36.959Z,11.75
2022-09-22T00:05:09.307Z,11.69
2022-09-22T00:07:41.245Z,11.63
2022-09-22T00:10:13.123Z,11.59
2022-09-22T00:12:46.756Z,11.52
2022-09-22T00:15:19.228Z,11.50
2022-09-22T00:17:51.222Z,11.48
2022-09-22T00:20:23.159Z,11.49
2022-09-22T00:22:55.476Z,11.51
2022-09-22T00:25:27.539Z,11.55
2022-09-22T00:27:59.508Z,11.59
2022-09-22T00:30:31.469Z,11.63
2022-09-22T00:33:03.412Z,11.67
2022-09-22T00:35:36.920Z,11.71
2022-09-22T00:38:08.926Z,11.74
2022-09-22T00:40:40.894Z,11.77
2022-09-22T00:43:15.532Z,11.80
2022-09-22T00:45:50.413Z,11.81
2022-09-22T00:48:24.831Z,11.85
2022-09-22T00:50:59.657Z,11.86
2022-09-22T00:53:32.087Z,11.90
2022-09-22T00:56:10.124Z,11.90
2022-09-22T00:58:45.027Z,11.92
2022-09-22T01:01:17.297Z,11.95
2022-09-22T01:03:50.928Z,11.95
2022-09-22T01:06:26.612Z,11.96
2022-09-22T01:08:59.879Z,11.96
2022-09-22T01:11:32.295Z,11.97
2022-09-22T01:14:23.989Z,11.98
2022-09-22T01:17:02.081Z,11.99
2022-09-22T01:20:02.605Z,11.98
2022-09-22T01:22:55.864Z,12.00
2022-09-22T01:25:42.603Z,12.01
2022-09-22T01:28:17.586Z,12.00
2022-09-22T01:31:18.166Z,12.01
2022-09-22T01:33:56.082Z,12.03
2022-09-22T01:36:33.972Z,12.05
2022-09-22T01:39:09.068Z,12.04
2022-09-22T01:41:51.343Z,12.05
2022-09-22T01:44:50.206Z,12.02
2022-09-22T01:47:31.018Z,12.03
2022-09-22T01:50:05.882Z,12.06
2022-09-22T01:52:41.546Z,12.06
2022-09-22T01:55:19.527Z,12.07
2022-09-22T01:58:00.975Z,12.10
2022-09-22T02:00:33.084Z,12.11
2022-09-22T02:03:13.821Z,12.12
2022-09-22T02:05:49.452Z,12.12
2022-09-22T02:08:24.561Z,12.14
2022-09-22T02:10:58.922Z,12.16
2022-09-22T02:13:30.299Z,12.16
2022-09-22T02:16:02.141Z,12.36
2022-09-22T02:18:37.114Z,12.20
2022-09-22T02:21:10.158Z,12.21
2022-09-22T02:23:43.074Z,12.21
2022-09-22T02:26:18.036Z,12.20
2022-09-22T02:28:51.540Z,12.20
2022-09-22T02:31:27.666Z,12.21
2022-09-22T02:34:00.177Z,12.21
2022-09-22T02:36:40.957Z,12.21
2022-09-22T02:39:21.213Z,12.21
2022-09-22T02:41:56.108Z,12.24
2022-09-22T02:44:33.954Z,12.24
2022-09-22T02:47:11.840Z,12.24
2022-09-22T02:49:46.743Z,12.24
2022-09-22T02:52:21.480Z,12.25
2022-09-22T02:54:55.711Z,12.26
2022-09-22T02:57:27.979Z,12.27
2022-09-22T03:00:00.050Z,12.27
2022-09-22T03:02:33.320Z,12.27
2022-09-22T03:05:05.817Z,12.29
2022-09-22T03:07:37.998Z,12.28
2022-09-22T03:10:10.796Z,12.27
2022-09-22T03:13:09.107Z,12.27
2022-09-22T03:15:22.710Z,12.27
2022-09-22T03:17:53.927Z,12.27
2022-09-22T03:20:26.004Z,12.28
2022-09-22T03:22:58.078Z,12.28
2022-09-22T03:25:30.216Z,12.28
2022-09-22T03:28:02.376Z,12.26
2022-09-22T03:30:35.926Z,12.26
2022-09-22T03:33:08.141Z,12.26
2022-09-22T03:35:40.315Z,12.30
2022-09-22T03:38:12.266Z,12.29
2022-09-22T03:40:52.845Z,12.31
2022-09-22T03:43:24.797Z,12.32
2022-09-22T03:46:00.820Z,12.32
2022-09-22T03:48:33.226Z,12.32
2022-09-22T03:51:05.393Z,12.33
2022-09-22T03:53:38.072Z,12.34
2022-09-22T03:56:13.086Z,12.35
2022-09-22T03:58:45.559Z,12.35
2022-09-22T04:01:18.443Z,12.36
2022-09-22T04:03:50.481Z,12.36
2022-09-22T04:06:22.551Z,12.37
2022-09-22T04:08:55.151Z,12.39
2022-09-22T04:11:27.546Z,12.41
2022-09-22T04:14:01.371Z,12.44
2022-09-22T04:16:33.576Z,12.47
2022-09-22T04:19:05.935Z,12.51
2022-09-22T04:21:37.902Z,12.55
2022-09-22T04:24:11.597Z,12.60
2022-09-22T04:26:56.629Z,12.63
2022-09-22T04:29:17.371Z,12.70
2022-09-22T04:31:49.453Z,12.75
2022-09-22T04:34:21.379Z,12.79
2022-09-22T04:36:53.437Z,12.79
2022-09-22T04:39:25.539Z,12.82
2022-09-22T04:41:57.701Z,12.86
2022-09-22T04:44:34.585Z,12.92
2022-09-22T04:47:05.088Z,12.96
2022-09-22T04:49:37.469Z,13.03
2022-09-22T04:52:09.844Z,13.11
2022-09-22T04:54:42.058Z,13.19
2022-09-22T04:57:18.342Z,13.28
2022-09-22T04:59:47.726Z,13.35
2022-09-22T05:02:19.718Z,13.43
2022-09-22T05:04:51.963Z,13.43
2022-09-22T05:07:24.182Z,13.47
2022-09-22T05:09:56.406Z,13.51
2022-09-22T05:12:28.943Z,13.62
2022-09-22T05:15:01.014Z,13.76
2022-09-22T05:17:33.665Z,13.94
2022-09-22T05:20:09.065Z,14.15
2022-09-22T05:22:41.769Z,14.32
2022-09-22T05:25:15.838Z,14.37
2022-09-22T05:27:53.271Z,14.34
2022-09-22T05:30:26.653Z,14.26
2022-09-22T05:32:58.818Z,14.16
2022-09-22T05:35:36.481Z,14.07
2022-09-22T05:38:04.985Z,14.00
2022-09-22T05:40:37.197Z,13.97
2022-09-22T05:43:09.265Z,13.96
2022-09-22T05:45:41.504Z,13.99
2022-09-22T05:48:13.997Z,14.02
2022-09-22T05:50:46.362Z,14.10
2022-09-22T05:53:18.396Z,14.16
2022-09-22T05:55:50.573Z,14.11
2022-09-22T05:58:22.631Z,14.26
2022-09-22T06:00:58.278Z,14.27
2022-09-22T06:03:30.526Z,14.27
2022-09-22T06:06:03.387Z,14.43
2022-09-22T06:08:35.761Z,14.63
2022-09-22T06:11:07.845Z,14.90
2022-09-22T06:13:39.883Z,15.10
2022-09-22T06:16:12.344Z,15.18
2022-09-22T06:18:48.966Z,15.17
2022-09-22T06:21:21.213Z,15.11
2022-09-22T06:23:53.326Z,15.02
2022-09-22T06:26:25.694Z,14.91
2022-09-22T06:28:58.601Z,14.77
2022-09-22T06:31:30.752Z,14.64
2022-09-22T06:34:07.381Z,14.61
2022-09-22T06:36:37.317Z,14.62
2022-09-22T06:39:10.956Z,14.68
2022-09-22T06:41:44.723Z,14.73
2022-09-22T06:44:17.266Z,14.85
2022-09-22T06:46:49.327Z,14.91
2022-09-22T06:49:21.694Z,14.92
2022-09-22T06:51:55.326Z,14.94
2022-09-22T06:54:27.426Z,15.12
2022-09-22T06:56:59.421Z,15.57
2022-09-22T06:59:31.650Z,15.73
2022-09-22T07:02:05.494Z,15.73
2022-09-22T07:04:37.804Z,16.15
2022-09-22T07:07:10.098Z,16.46
2022-09-22T07:09:42.159Z,16.46
2022-09-22T07:12:14.506Z,16.49
2022-09-22T07:14:48.372Z,16.39
2022-09-22T07:17:20.974Z,16.39
2022-09-22T07:19:54.595Z,16.28
2022-09-22T07:22:26.977Z,15.89
2022-09-22T07:24:59.012Z,15.89
2022-09-22T07:27:32.605Z,15.68
2022-09-22T07:30:05.056Z,15.42
2022-09-22T07:32:37.505Z,15.33
2022-09-22T07:35:09.750Z,15.15
2022-09-22T07:37:41.790Z,15.03
2022-09-22T07:40:14.899Z,14.95
2022-09-22T07:42:51.608Z,14.95
2022-09-22T07:45:23.921Z,14.95
2022-09-22T07:48:13.559Z,15.03
2022-09-22T07:50:47.079Z,15.25
2022-09-22T07:53:19.110Z,15.25
2022-09-22T07:55:51.216Z,15.31
2022-09-22T07:58:23.185Z,15.32
2022-09-22T08:00:55.332Z,15.26
2022-09-22T08:03:27.471Z,15.20
2022-09-22T08:06:07.022Z,15.06
2022-09-22T08:08:44.403Z,14.95
2022-09-22T08:11:20.805Z,14.90
2022-09-22T08:13:55.959Z,14.93
2022-09-22T08:16:30.321Z,15.02
2022-09-22T08:19:06.640Z,15.11
2022-09-22T08:21:47.980Z,15.36
2022-09-22T08:24:16.418Z,15.50
2022-09-22T08:26:50.505Z,15.56
2022-09-22T08:29:24.455Z,15.66
2022-09-22T08:31:56.847Z,15.82
2022-09-22T08:34:29.143Z,15.89
2022-09-22T08:37:01.384Z,15.98
2022-09-22T08:39:33.671Z,15.98
2022-09-22T08:42:22.316Z,16.27
2022-09-22T08:45:09.400Z,16.51
2022-09-22T08:48:02.033Z,16.56
2022-09-22T08:51:09.750Z,16.62
2022-09-22T08:53:52.393Z,16.80
2022-09-22T08:56:37.083Z,16.81
2022-09-22T08:59:14.952Z,16.81
2022-09-22T09:02:01.812Z,16.78
2022-09-22T09:04:49.031Z,16.69
2022-09-22T09:07:27.023Z,16.62
2022-09-22T09:10:27.518Z,16.36
2022-09-22T09:13:11.252Z,16.26
2022-09-22T09:15:55.766Z,16.12
2022-09-22T09:18:31.287Z,16.04
2022-09-22T09:21:06.322Z,16.10
2022-09-22T09:26:18.844Z,16.50
2022-09-22T09:28:59.239Z,16.76
2022-09-22T09:31:42.892Z,17.13
2022-09-22T09:34:18.061Z,17.45
2022-09-22T09:36:55.080Z,17.80
2022-09-22T09:39:33.428Z,18.02
2022-09-22T09:42:11.321Z,18.13
2022-09-22T09:44:45.337Z,18.13
2022-09-22T09:47:38.831Z,18.23
2022-09-22T09:50:12.256Z,18.32
2022-09-22T09:52:46.056Z,18.46
2022-09-22T09:55:26.582Z,18.73
2022-09-22T09:58:08.500Z,19.02
2022-09-22T10:00:58.628Z,19.23
2022-09-22T10:03:33.418Z,19.60
2022-09-22T10:06:11.829Z,19.96
2022-09-22T10:08:46.830Z,20.26
2022-09-22T10:11:31.260Z,20.51
2022-09-22T10:14:04.094Z,20.82
2022-09-22T10:16:36.505Z,21.03
2022-09-22T10:19:34.701Z,20.99
2022-09-22T10:22:27.824Z,20.84
2022-09-22T10:25:02.210Z,20.46
2022-09-22T10:27:34.179Z,20.11
2022-09-22T10:30:23.818Z,19.88
2022-09-22T10:33:18.553Z,19.81
2022-09-22T10:36:12.081Z,19.71
2022-09-22T10:38:45.152Z,19.58
2022-09-22T10:41:21.490Z,19.37
2022-09-22T10:44:03.131Z,19.26
2022-09-22T10:46:58.195Z,19.11
2022-09-22T10:50:01.874Z,19.00
2022-09-22T10:52:45.809Z,18.99
2022-09-22T10:55:32.846Z,18.90
2022-09-22T10:58:10.712Z,18.80
2022-09-22T11:00:43.660Z,18.67
2022-09-22T11:03:39.956Z,18.80
2022-09-22T11:06:39.053Z,19.00
2022-09-22T11:12:28.509Z,19.60
2022-09-22T11:15:21.720Z,19.39
2022-09-22T11:18:08.748Z,19.06
2022-09-22T11:20:46.395Z,18.79
2022-09-22T11:23:36.481Z,18.51
2022-09-22T11:26:44.617Z,18.21
2022-09-22T11:29:42.077Z,17.89
2022-09-22T11:32:26.454Z,17.61
2022-09-22T11:35:17.782Z,17.37
2022-09-22T11:37:52.741Z,17.21
2022-09-22T11:40:34.299Z,17.06
2022-09-22T11:43:15.170Z,16.99
2022-09-22T11:45:56.210Z,16.98
2022-09-22T11:48:48.808Z,16.99
2022-09-22T11:51:27.088Z,16.97
2022-09-22T11:54:05.110Z,16.97
2022-09-22T11:56:43.207Z,16.95
2022-09-22T11:59:27.393Z,16.92
2022-09-22T12:02:04.232Z,16.85
2022-09-22T12:04:42.377Z,16.80
2022-09-22T12:07:33.072Z,16.93
2022-09-22T12:10:08.322Z,17.30
2022-09-22T12:12:45.194Z,17.90
2022-09-22T12:15:32.646Z,18.41
2022-09-22T12:18:20.064Z,18.87
2022-09-22T12:20:58.592Z,19.23
2022-09-22T12:23:47.737Z,19.52
2022-09-22T12:26:34.897Z,19.51
2022-09-22T12:29:19.136Z,19.44
2022-09-22T12:31:55.906Z,19.33
2022-09-22T12:34:37.729Z,19.09
2022-09-22T12:37:29.945Z,18.77
2022-09-22T12:40:21.854Z,18.49
2022-09-22T12:42:55.748Z,18.27
2022-09-22T12:45:39.923Z,18.46
2022-09-22T12:48:22.446Z,18.92
2022-09-22T12:50:56.252Z,19.40
2022-09-22T12:53:29.795Z,19.55
2022-09-22T12:56:04.934Z,19.66
2022-09-22T12:58:41.778Z,19.93
2022-09-22T13:01:34.736Z,20.13
2022-09-22T13:04:15.447Z,19.92
2022-09-22T13:06:50.517Z,19.44
2022-09-22T13:09:26.358Z,19.10
2022-09-22T13:12:18.557Z,18.98
2022-09-22T13:15:03.364Z,18.96
2022-09-22T13:17:39.919Z,19.01
2022-09-22T13:20:32.815Z,19.70
2022-09-22T13:23:13.094Z,19.33
2022-09-22T13:25:45.724Z,19.54
2022-09-22T13:28:21.811Z,19.57
2022-09-22T13:31:06.247Z,19.52
2022-09-22T13:33:38.316Z,19.27
2022-09-22T13:36:19.765Z,19.22
2022-09-22T13:38:55.331Z,19.27
2022-09-22T13:41:31.506Z,19.41
2022-09-22T13:44:10.767Z,19.60
2022-09-22T13:46:49.286Z,19.78
2022-09-22T13:49:34.089Z,20.04
2022-09-22T13:52:09.126Z,20.25
2022-09-22T13:54:42.407Z,20.06
2022-09-22T13:57:20.924Z,19.46
2022-09-22T13:59:53.349Z,18.94
2022-09-22T14:02:31.355Z,18.35
2022-09-22T14:05:08.993Z,17.92
2022-09-22T14:08:00.927Z,17.64
2022-09-22T14:10:19.330Z,17.61
2022-09-22T14:12:51.694Z,17.59
2022-09-22T14:15:43.960Z,17.40
2022-09-22T14:18:26.570Z,17.20
2022-09-22T14:20:59.843Z,16.94
2022-09-22T14:23:33.590Z,16.75
2022-09-22T14:26:08.762Z,16.84
2022-09-22T14:28:42.823Z,17.08
2022-09-22T14:31:17.408Z,17.35
2022-09-22T14:33:51.468Z,17.66
2022-09-22T14:36:27.036Z,17.75
2022-09-22T14:39:09.994Z,17.60
2022-09-22T14:41:39.764Z,17.33
2022-09-22T14:44:27.814Z,17.13
2022-09-22T14:47:03.094Z,17.01
2022-09-22T14:49:44.869Z,16.96
2022-09-22T14:52:24.263Z,16.87
2022-09-22T14:54:59.517Z,16.78
2022-09-22T14:57:33.287Z,16.72
2022-09-22T15:00:24.492Z,16.63
2022-09-22T15:02:58.354Z,16.37
2022-09-22T15:05:37.008Z,16.06
2022-09-22T15:08:11.045Z,15.72
2022-09-22T15:10:46.054Z,15.40
2022-09-22T15:13:33.137Z,15.09
2022-09-22T15:16:05.886Z,14.78
2022-09-22T15:18:38.171Z,14.51
2022-09-22T15:21:15.040Z,14.10
2022-09-22T15:23:49.628Z,14.10
2022-09-22T15:26:28.091Z,13.95
2022-09-22T15:29:01.803Z,13.59
2022-09-22T15:31:35.176Z,13.59
2022-09-22T15:34:09.572Z,13.54
2022-09-22T15:36:44.304Z,13.42
2022-09-22T15:39:19.043Z,13.49
2022-09-22T15:41:52.902Z,13.24
2022-09-22T15:44:25.693Z,13.14
2022-09-22T15:47:00.381Z,13.04
2022-09-22T15:49:35.809Z,12.95
2022-09-22T15:52:10.628Z,12.86
2022-09-22T15:54:43.496Z,12.77
2022-09-22T15:57:16.209Z,12.85
2022-09-22T15:59:49.422Z,12.64
2022-09-22T16:02:22.225Z,12.55
2022-09-22T16:04:57.400Z,12.49
2022-09-22T16:07:30.092Z,12.40
2022-09-22T16:10:03.172Z,12.39
2022-09-22T16:12:35.763Z,12.37
2022-09-22T16:15:11.299Z,12.34
2022-09-22T16:17:45.531Z,12.30
2022-09-22T16:20:19.124Z,12.24
2022-09-22T16:22:51.820Z,12.25
2022-09-22T16:25:24.512Z,12.23
2022-09-22T16:27:57.474Z,12.28
2022-09-22T16:30:30.977Z,12.36
2022-09-22T16:33:04.869Z,12.50
2022-09-22T16:35:37.395Z,12.65
2022-09-22T16:38:12.173Z,12.81
2022-09-22T16:40:44.797Z,12.97
2022-09-22T16:43:22.627Z,13.19
2022-09-22T16:46:15.799Z,13.23
2022-09-22T16:48:49.059Z,13.31
2022-09-22T16:51:21.841Z,13.39
2022-09-22T16:53:54.039Z,13.44
2022-09-22T16:56:28.339Z,13.47
2022-09-22T16:59:03.526Z,13.48
2022-09-22T17:01:38.412Z,13.66
2022-09-22T17:04:11.300Z,13.56
2022-09-22T17:06:45.531Z,13.55
2022-09-22T17:09:19.299Z,13.57
2022-09-22T17:11:53.117Z,13.56
2022-09-22T17:14:26.155Z,13.54
2022-09-22T17:17:00.295Z,13.49
2022-09-22T17:19:32.906Z,13.47
2022-09-22T17:22:05.391Z,13.45
2022-09-22T17:24:38.003Z,13.42
2022-09-22T17:27:12.612Z,13.42
2022-09-22T17:29:45.092Z,13.43
2022-09-22T17:32:18.052Z,13.46
2022-09-22T17:34:50.760Z,13.50
2022-09-22T17:37:23.219Z,13.60
2022-09-22T17:39:55.867Z,13.58
2022-09-22T17:42:28.137Z,13.62
2022-09-22T17:45:00.736Z,13.63
2022-09-22T17:47:51.250Z,13.65
2022-09-22T17:50:39.989Z,13.68
2022-09-22T17:53:30.262Z,13.69
2022-09-22T17:56:04.823Z,13.73
2022-09-22T17:58:37.641Z,13.71
2022-09-22T18:01:10.543Z,13.71
2022-09-22T18:03:47.601Z,13.67
2022-09-22T18:06:21.333Z,13.64
2022-09-22T18:08:54.612Z,13.58
2022-09-22T18:11:27.671Z,13.49
2022-09-22T18:14:00.294Z,13.41
2022-09-22T18:16:33.475Z,13.34
2022-09-22T18:19:07.080Z,13.30
2022-09-22T18:21:39.501Z,13.27
2022-09-22T18:24:17.741Z,13.26
2022-09-22T18:26:53.180Z,13.26
2022-09-22T18:29:26.621Z,13.27
2022-09-22T18:31:59.678Z,13.28
2022-09-22T18:34:33.045Z,13.29
2022-09-22T18:37:06.602Z,13.30
2022-09-22T18:39:45.029Z,13.33
2022-09-22T18:42:19.211Z,13.35
2022-09-22T18:44:52.169Z,13.35
2022-09-22T18:47:25.476Z,13.35
2022-09-22T18:49:59.714Z,13.36
2022-09-22T18:52:33.689Z,13.36
2022-09-22T18:55:08.446Z,13.36
2022-09-22T18:57:42.347Z,13.36
2022-09-22T19:00:16.086Z,13.37
2022-09-22T19:02:49.903Z,13.38
2022-09-22T19:05:22.565Z,13.39
2022-09-22T19:07:55.237Z,13.39
2022-09-22T19:10:27.596Z,13.37
2022-09-22T19:13:00.481Z,13.34
2022-09-22T19:15:32.788Z,13.33
2022-09-22T19:18:05.161Z,13.32
2022-09-22T19:20:38.464Z,13.31
2022-09-22T19:23:11.504Z,13.30
2022-09-22T19:25:43.761Z,13.32
2022-09-22T19:28:16.093Z,13.33
2022-09-22T19:30:48.343Z,13.33
2022-09-22T19:33:20.646Z,13.33
2022-09-22T19:35:53.143Z,13.33
2022-09-22T19:38:25.381Z,13.34
2022-09-22T19:40:59.478Z,13.35
2022-09-22T19:43:32.164Z,13.36
2022-09-22T19:46:04.377Z,13.36
2022-09-22T19:48:36.645Z,13.35
2022-09-22T19:51:08.929Z,13.35
2022-09-22T19:53:41.296Z,13.32
2022-09-22T19:56:13.292Z,13.31
2022-09-22T19:58:45.246Z,13.26
2022-09-22T20:01:41.901Z,13.23
2022-09-22T20:04:19.056Z,13.17
2022-09-22T20:06:51.159Z,13.14
2022-09-22T20:09:23.437Z,13.10
2022-09-22T20:11:55.366Z,13.02
2022-09-22T20:14:27.848Z,12.98
2022-09-22T20:17:03.348Z,12.95
2022-09-22T20:19:38.554Z,12.94
2022-09-22T20:22:25.629Z,12.96
2022-09-22T20:25:00.516Z,12.96
2022-09-22T20:27:35.435Z,12.98
2022-09-22T20:30:09.054Z,12.98
2022-09-22T20:32:41.898Z,13.01
2022-09-22T20:35:16.859Z,13.05
2022-09-22T20:38:02.271Z,13.10
2022-09-22T20:40:34.466Z,13.16
2022-09-22T20:43:06.547Z,13.22
2022-09-22T20:45:38.791Z,13.29
2022-09-22T20:48:18.722Z,13.32
2022-09-22T20:51:02.899Z,13.36
2022-09-22T20:53:36.936Z,13.40
2022-09-22T20:56:11.254Z,13.46
2022-09-22T20:58:45.231Z,13.49
2022-09-22T21:01:18.741Z,13.52
2022-09-22T21:03:50.686Z,13.53
2022-09-22T21:06:24.214Z,13.52
2022-09-22T21:09:09.703Z,13.46
2022-09-22T21:11:41.631Z,13.35
2022-09-22T21:14:13.863Z,13.24
2022-09-22T21:16:46.183Z,13.14
2022-09-22T21:19:18.247Z,13.01
2022-09-22T21:21:50.134Z,13.01
2022-09-22T21:24:21.962Z,12.98
2022-09-22T21:26:53.832Z,12.98
2022-09-22T21:29:25.963Z,13.01
2022-09-22T21:31:58.467Z,13.05
2022-09-22T21:34:30.838Z,13.09
2022-09-22T21:37:02.813Z,13.10
2022-09-22T21:39:34.844Z,13.12
2022-09-22T21:42:06.982Z,13.09
2022-09-22T21:44:39.221Z,13.07
2022-09-22T21:47:11.525Z,13.07
2022-09-22T21:49:43.588Z,13.04
2022-09-22T21:52:16.312Z,13.03
2022-09-22T21:54:48.381Z,13.02
2022-09-22T21:57:20.267Z,12.98
2022-09-22T21:59:56.532Z,12.91
2022-09-22T22:02:25.799Z,12.87
2022-09-22T22:04:57.839Z,12.83
2022-09-22T22:07:29.983Z,12.82
2022-09-22T22:10:02.114Z,12.79
2022-09-22T22:12:35.101Z,12.78
2022-09-22T22:15:08.249Z,12.81
2022-09-22T22:17:40.338Z,12.86
2022-09-22T22:20:12.378Z,12.90
2022-09-22T22:22:44.728Z,12.93
2022-09-22T22:25:18.564Z,12.95
2022-09-22T22:27:50.473Z,12.99
2022-09-22T22:30:22.618Z,13.02
2022-09-22T22:32:54.854Z,13.04
2022-09-22T22:35:26.822Z,13.07
2022-09-22T22:37:58.834Z,13.10
2022-09-22T22:40:32.235Z,13.09
2022-09-22T22:43:04.376Z,13.12
2022-09-22T22:45:36.358Z,13.13
2022-09-22T22:48:08.397Z,13.13
2022-09-22T22:50:40.968Z,13.15
2022-09-22T22:53:14.778Z,13.17
2022-09-22T22:56:04.848Z,13.16
2022-09-22T22:58:39.265Z,13.19
2022-09-22T23:01:14.157Z,13.19
2022-09-22T23:03:55.250Z,13.19
2022-09-22T23:06:36.136Z,13.19
2022-09-22T23:09:10.186Z,13.18
2022-09-22T23:11:43.064Z,13.16
2022-09-22T23:14:16.533Z,13.18
2022-09-22T23:16:49.649Z,13.18
2022-09-22T23:19:21.552Z,13.18
2022-09-22T23:21:54.758Z,13.20
2022-09-22T23:24:26.790Z,13.20
2022-09-22T23:26:58.831Z,13.22
2022-09-22T23:29:30.819Z,13.21
2022-09-22T23:32:03.366Z,13.24
2022-09-22T23:34:35.361Z,13.21
2022-09-22T23:37:07.298Z,13.22
2022-09-22T23:39:39.233Z,13.20
2022-09-22T23:42:11.191Z,13.18
2022-09-22T23:44:44.719Z,13.17
2022-09-22T23:47:16.592Z,13.15
2022-09-22T23:49:48.816Z,13.14
2022-09-22T23:52:22.555Z,13.15
2022-09-22T23:54:54.660Z,13.13
2022-09-22T23:57:26.598Z,13.14
2022-09-22T23:59:58.812Z,13.16
